sensor_id;sensor_type;location;lat;lon;timestamp;P1;durP1;ratioP1;P2;durP2;ratioP2
74658;SDS011;63186;51.204;6.536;2024-02-21T00:02:23;16.50;;;6.73;;
74658;SDS011;63186;51.204;6.536;2024-02-21T00:04:49;15.13;;;6.13;;
74658;SDS011;63186;51.204;6.536;2024-02-21T00:07:14;20.33;;;5.65;;
74658;SDS011;63186;51.204;6.536;2024-02-21T00:09:40;18.70;;;6.65;;
74658;SDS011;63186;51.204;6.536;2024-02-21T00:12:05;17.47;;;5.90;;
74658;SDS011;63186;51.204;6.536;2024-02-21T00:14:30;12.18;;;5.80;;
74658;SDS011;63186;51.204;6.536;2024-02-21T00:16:56;18.10;;;5.78;;
74658;SDS011;63186;51.204;6.536;2024-02-21T00:19:21;18.30;;;6.38;;
74658;SDS011;63186;51.204;6.536;2024-02-21T00:21:47;13.47;;;5.37;;
74658;SDS011;63186;51.204;6.536;2024-02-21T00:24:12;22.58;;;6.50;;
74658;SDS011;63186;51.204;6.536;2024-02-21T00:26:38;14.63;;;5.85;;
74658;SDS011;63186;51.204;6.536;2024-02-21T00:29:03;11.32;;;4.95;;
74658;SDS011;63186;51.204;6.536;2024-02-21T00:31:28;15.25;;;6.38;;
74658;SDS011;63186;51.204;6.536;2024-02-21T00:33:54;12.33;;;5.23;;
74658;SDS011;63186;51.204;6.536;2024-02-21T00:36:19;15.85;;;6.25;;
74658;SDS011;63186;51.204;6.536;2024-02-21T00:38:44;20.60;;;7.20;;
74658;SDS011;63186;51.204;6.536;2024-02-21T00:41:10;16.13;;;6.17;;
74658;SDS011;63186;51.204;6.536;2024-02-21T00:43:35;19.13;;;6.32;;
74658;SDS011;63186;51.204;6.536;2024-02-21T00:46:00;13.30;;;6.10;;
74658;SDS011;63186;51.204;6.536;2024-02-21T00:48:25;15.43;;;5.53;;
74658;SDS011;63186;51.204;6.536;2024-02-21T00:50:51;18.23;;;6.20;;
74658;SDS011;63186;51.204;6.536;2024-02-21T00:53:17;13.57;;;6.10;;
74658;SDS011;63186;51.204;6.536;2024-02-21T00:55:42;17.35;;;7.03;;
74658;SDS011;63186;51.204;6.536;2024-02-21T00:58:08;13.57;;;6.40;;
74658;SDS011;63186;51.204;6.536;2024-02-21T01:00:34;13.50;;;6.07;;
74658;SDS011;63186;51.204;6.536;2024-02-21T01:02:59;18.13;;;6.03;;
74658;SDS011;63186;51.204;6.536;2024-02-21T01:05:24;15.48;;;5.63;;
74658;SDS011;63186;51.204;6.536;2024-02-21T01:07:50;14.52;;;6.55;;
74658;SDS011;63186;51.204;6.536;2024-02-21T01:10:15;13.47;;;6.10;;
74658;SDS011;63186;51.204;6.536;2024-02-21T01:12:41;18.65;;;6.20;;
74658;SDS011;63186;51.204;6.536;2024-02-21T01:15:07;17.00;;;5.97;;
74658;SDS011;63186;51.204;6.536;2024-02-21T01:17:32;19.20;;;6.05;;
74658;SDS011;63186;51.204;6.536;2024-02-21T01:19:58;14.25;;;6.22;;
74658;SDS011;63186;51.204;6.536;2024-02-21T01:22:23;13.30;;;5.47;;
74658;SDS011;63186;51.204;6.536;2024-02-21T01:24:48;15.40;;;5.77;;
74658;SDS011;63186;51.204;6.536;2024-02-21T01:27:14;17.93;;;5.00;;
74658;SDS011;63186;51.204;6.536;2024-02-21T01:29:39;12.33;;;6.17;;
74658;SDS011;63186;51.204;6.536;2024-02-21T01:32:04;18.37;;;5.87;;
74658;SDS011;63186;51.204;6.536;2024-02-21T01:34:30;19.75;;;6.45;;
74658;SDS011;63186;51.204;6.536;2024-02-21T01:36:55;12.73;;;5.53;;
74658;SDS011;63186;51.204;6.536;2024-02-21T01:39:20;16.50;;;5.80;;
74658;SDS011;63186;51.204;6.536;2024-02-21T01:41:46;14.90;;;5.30;;
74658;SDS011;63186;51.204;6.536;2024-02-21T01:44:11;22.47;;;5.87;;
74658;SDS011;63186;51.204;6.536;2024-02-21T01:46:37;18.40;;;6.43;;
74658;SDS011;63186;51.204;6.536;2024-02-21T01:49:02;18.90;;;6.32;;
74658;SDS011;63186;51.204;6.536;2024-02-21T01:51:29;14.02;;;5.95;;
74658;SDS011;63186;51.204;6.536;2024-02-21T01:53:55;12.48;;;5.07;;
74658;SDS011;63186;51.204;6.536;2024-02-21T01:56:22;15.27;;;6.07;;
74658;SDS011;63186;51.204;6.536;2024-02-21T01:58:49;16.42;;;6.28;;
74658;SDS011;63186;51.204;6.536;2024-02-21T02:01:15;12.57;;;6.43;;
74658;SDS011;63186;51.204;6.536;2024-02-21T02:03:42;12.52;;;5.38;;
74658;SDS011;63186;51.204;6.536;2024-02-21T02:06:09;16.52;;;5.38;;
74658;SDS011;63186;51.204;6.536;2024-02-21T02:08:35;14.53;;;6.17;;
74658;SDS011;63186;51.204;6.536;2024-02-21T02:11:00;14.45;;;5.43;;
74658;SDS011;63186;51.204;6.536;2024-02-21T02:13:26;11.23;;;4.40;;
74658;SDS011;63186;51.204;6.536;2024-02-21T02:15:52;13.65;;;4.85;;
74658;SDS011;63186;51.204;6.536;2024-02-21T02:18:18;14.07;;;4.70;;
74658;SDS011;63186;51.204;6.536;2024-02-21T02:20:44;15.65;;;5.95;;
74658;SDS011;63186;51.204;6.536;2024-02-21T02:23:12;11.38;;;4.38;;
74658;SDS011;63186;51.204;6.536;2024-02-21T02:25:43;11.40;;;5.05;;
74658;SDS011;63186;51.204;6.536;2024-02-21T02:28:08;11.60;;;5.53;;
74658;SDS011;63186;51.204;6.536;2024-02-21T02:30:34;16.55;;;5.55;;
74658;SDS011;63186;51.204;6.536;2024-02-21T02:33:01;10.63;;;4.63;;
74658;SDS011;63186;51.204;6.536;2024-02-21T02:35:27;14.98;;;5.45;;
74658;SDS011;63186;51.204;6.536;2024-02-21T02:37:53;16.88;;;5.45;;
74658;SDS011;63186;51.204;6.536;2024-02-21T02:40:18;13.20;;;4.40;;
74658;SDS011;63186;51.204;6.536;2024-02-21T02:42:44;13.43;;;5.63;;
74658;SDS011;63186;51.204;6.536;2024-02-21T02:45:09;16.30;;;6.13;;
74658;SDS011;63186;51.204;6.536;2024-02-21T02:47:35;11.80;;;4.65;;
74658;SDS011;63186;51.204;6.536;2024-02-21T02:50:00;15.70;;;4.97;;
74658;SDS011;63186;51.204;6.536;2024-02-21T02:52:26;12.85;;;4.97;;
74658;SDS011;63186;51.204;6.536;2024-02-21T02:54:52;17.60;;;5.23;;
74658;SDS011;63186;51.204;6.536;2024-02-21T02:57:20;12.85;;;5.05;;
74658;SDS011;63186;51.204;6.536;2024-02-21T02:59:49;13.70;;;4.97;;
74658;SDS011;63186;51.204;6.536;2024-02-21T03:02:15;12.95;;;6.60;;
74658;SDS011;63186;51.204;6.536;2024-02-21T03:04:40;13.10;;;5.70;;
74658;SDS011;63186;51.204;6.536;2024-02-21T03:07:06;14.33;;;5.60;;
74658;SDS011;63186;51.204;6.536;2024-02-21T03:09:31;17.48;;;4.68;;
74658;SDS011;63186;51.204;6.536;2024-02-21T03:11:57;10.23;;;3.73;;
74658;SDS011;63186;51.204;6.536;2024-02-21T03:14:27;14.02;;;5.70;;
74658;SDS011;63186;51.204;6.536;2024-02-21T03:16:53;10.98;;;4.32;;
74658;SDS011;63186;51.204;6.536;2024-02-21T03:19:18;12.83;;;5.07;;
74658;SDS011;63186;51.204;6.536;2024-02-21T03:21:43;12.83;;;5.73;;
74658;SDS011;63186;51.204;6.536;2024-02-21T03:24:09;13.57;;;4.67;;
74658;SDS011;63186;51.204;6.536;2024-02-21T03:26:34;12.87;;;5.10;;
74658;SDS011;63186;51.204;6.536;2024-02-21T03:28:59;12.90;;;5.20;;
74658;SDS011;63186;51.204;6.536;2024-02-21T03:31:24;12.57;;;4.87;;
74658;SDS011;63186;51.204;6.536;2024-02-21T03:33:50;15.82;;;5.15;;
74658;SDS011;63186;51.204;6.536;2024-02-21T03:36:15;10.57;;;4.33;;
74658;SDS011;63186;51.204;6.536;2024-02-21T03:38:40;15.83;;;4.83;;
74658;SDS011;63186;51.204;6.536;2024-02-21T03:41:06;11.73;;;4.70;;
74658;SDS011;63186;51.204;6.536;2024-02-21T03:43:31;14.23;;;5.50;;
74658;SDS011;63186;51.204;6.536;2024-02-21T03:45:56;12.60;;;5.03;;
74658;SDS011;63186;51.204;6.536;2024-02-21T03:48:22;10.40;;;5.33;;
74658;SDS011;63186;51.204;6.536;2024-02-21T03:50:47;15.97;;;5.67;;
74658;SDS011;63186;51.204;6.536;2024-02-21T03:53:12;15.60;;;5.07;;
74658;SDS011;63186;51.204;6.536;2024-02-21T03:55:38;10.23;;;3.97;;
74658;SDS011;63186;51.204;6.536;2024-02-21T03:58:03;19.53;;;5.77;;
74658;SDS011;63186;51.204;6.536;2024-02-21T04:00:28;12.43;;;4.70;;
74658;SDS011;63186;51.204;6.536;2024-02-21T04:02:53;10.77;;;4.80;;
74658;SDS011;63186;51.204;6.536;2024-02-21T04:05:20;13.15;;;4.45;;
74658;SDS011;63186;51.204;6.536;2024-02-21T04:07:46;16.30;;;4.75;;
74658;SDS011;63186;51.204;6.536;2024-02-21T04:10:11;11.90;;;4.85;;
74658;SDS011;63186;51.204;6.536;2024-02-21T04:12:37;12.60;;;5.32;;
74658;SDS011;63186;51.204;6.536;2024-02-21T04:15:03;16.80;;;5.15;;
74658;SDS011;63186;51.204;6.536;2024-02-21T04:17:29;11.45;;;4.35;;
74658;SDS011;63186;51.204;6.536;2024-02-21T04:19:56;11.07;;;4.00;;
74658;SDS011;63186;51.204;6.536;2024-02-21T04:22:30;9.45;;;3.70;;
74658;SDS011;63186;51.204;6.536;2024-02-21T04:24:55;12.95;;;4.78;;
74658;SDS011;63186;51.204;6.536;2024-02-21T04:27:20;10.57;;;3.77;;
74658;SDS011;63186;51.204;6.536;2024-02-21T04:29:45;13.40;;;4.53;;
74658;SDS011;63186;51.204;6.536;2024-02-21T04:32:11;8.63;;;3.83;;
74658;SDS011;63186;51.204;6.536;2024-02-21T04:34:36;13.77;;;4.07;;
74658;SDS011;63186;51.204;6.536;2024-02-21T04:37:01;11.25;;;4.80;;
74658;SDS011;63186;51.204;6.536;2024-02-21T04:39:27;15.45;;;4.35;;
74658;SDS011;63186;51.204;6.536;2024-02-21T04:41:52;14.50;;;4.40;;
74658;SDS011;63186;51.204;6.536;2024-02-21T04:44:17;20.60;;;4.37;;
74658;SDS011;63186;51.204;6.536;2024-02-21T04:46:46;11.35;;;4.57;;
74658;SDS011;63186;51.204;6.536;2024-02-21T04:49:11;12.80;;;4.03;;
74658;SDS011;63186;51.204;6.536;2024-02-21T04:51:37;14.97;;;3.63;;
74658;SDS011;63186;51.204;6.536;2024-02-21T04:54:02;9.27;;;4.03;;
74658;SDS011;63186;51.204;6.536;2024-02-21T04:56:28;9.38;;;4.45;;
74658;SDS011;63186;51.204;6.536;2024-02-21T04:58:53;11.50;;;4.20;;
74658;SDS011;63186;51.204;6.536;2024-02-21T05:01:19;13.07;;;3.97;;
74658;SDS011;63186;51.204;6.536;2024-02-21T05:03:44;8.77;;;3.40;;
74658;SDS011;63186;51.204;6.536;2024-02-21T05:06:09;12.50;;;3.80;;
74658;SDS011;63186;51.204;6.536;2024-02-21T05:08:35;10.43;;;4.43;;
74658;SDS011;63186;51.204;6.536;2024-02-21T05:11:00;8.27;;;3.72;;
74658;SDS011;63186;51.204;6.536;2024-02-21T05:13:25;8.10;;;3.43;;
74658;SDS011;63186;51.204;6.536;2024-02-21T05:15:51;10.23;;;3.80;;
74658;SDS011;63186;51.204;6.536;2024-02-21T05:18:16;12.17;;;4.60;;
74658;SDS011;63186;51.204;6.536;2024-02-21T05:20:41;9.93;;;4.63;;
74658;SDS011;63186;51.204;6.536;2024-02-21T05:23:07;16.63;;;3.67;;
74658;SDS011;63186;51.204;6.536;2024-02-21T05:25:32;9.57;;;3.80;;
74658;SDS011;63186;51.204;6.536;2024-02-21T05:27:57;14.27;;;3.67;;
74658;SDS011;63186;51.204;6.536;2024-02-21T05:30:27;15.52;;;4.63;;
74658;SDS011;63186;51.204;6.536;2024-02-21T05:32:52;10.53;;;3.83;;
74658;SDS011;63186;51.204;6.536;2024-02-21T05:35:17;12.73;;;4.00;;
74658;SDS011;63186;51.204;6.536;2024-02-21T05:37:42;13.13;;;3.65;;
74658;SDS011;63186;51.204;6.536;2024-02-21T05:40:08;15.13;;;3.87;;
74658;SDS011;63186;51.204;6.536;2024-02-21T05:42:34;13.02;;;5.05;;
74658;SDS011;63186;51.204;6.536;2024-02-21T05:44:59;18.17;;;4.18;;
74658;SDS011;63186;51.204;6.536;2024-02-21T05:47:24;10.37;;;3.90;;
74658;SDS011;63186;51.204;6.536;2024-02-21T05:49:50;9.00;;;3.93;;
74658;SDS011;63186;51.204;6.536;2024-02-21T05:54:43;14.80;;;4.25;;
74658;SDS011;63186;51.204;6.536;2024-02-21T05:57:09;9.83;;;4.03;;
74658;SDS011;63186;51.204;6.536;2024-02-21T05:59:34;17.65;;;4.43;;
74658;SDS011;63186;51.204;6.536;2024-02-21T06:02:01;8.73;;;3.58;;
74658;SDS011;63186;51.204;6.536;2024-02-21T06:04:28;9.60;;;4.03;;
74658;SDS011;63186;51.204;6.536;2024-02-21T06:06:54;7.97;;;3.42;;
74658;SDS011;63186;51.204;6.536;2024-02-21T06:09:19;9.87;;;3.57;;
74658;SDS011;63186;51.204;6.536;2024-02-21T06:11:44;12.73;;;4.30;;
74658;SDS011;63186;51.204;6.536;2024-02-21T06:14:11;11.05;;;3.53;;
74658;SDS011;63186;51.204;6.536;2024-02-21T06:16:36;10.05;;;3.42;;
74658;SDS011;63186;51.204;6.536;2024-02-21T06:19:02;16.90;;;4.20;;
74658;SDS011;63186;51.204;6.536;2024-02-21T06:21:31;8.85;;;3.67;;
74658;SDS011;63186;51.204;6.536;2024-02-21T06:23:56;10.27;;;3.58;;
74658;SDS011;63186;51.204;6.536;2024-02-21T06:26:21;8.33;;;2.90;;
74658;SDS011;63186;51.204;6.536;2024-02-21T06:28:47;10.60;;;4.33;;
74658;SDS011;63186;51.204;6.536;2024-02-21T06:31:12;13.50;;;4.47;;
74658;SDS011;63186;51.204;6.536;2024-02-21T06:33:37;12.15;;;4.00;;
74658;SDS011;63186;51.204;6.536;2024-02-21T06:36:03;10.93;;;4.03;;
74658;SDS011;63186;51.204;6.536;2024-02-21T06:38:28;9.15;;;4.10;;
74658;SDS011;63186;51.204;6.536;2024-02-21T06:40:53;9.90;;;3.50;;
74658;SDS011;63186;51.204;6.536;2024-02-21T06:43:20;12.25;;;4.40;;
74658;SDS011;63186;51.204;6.536;2024-02-21T06:45:45;9.07;;;4.70;;
74658;SDS011;63186;51.204;6.536;2024-02-21T06:48:15;11.25;;;3.63;;
74658;SDS011;63186;51.204;6.536;2024-02-21T06:50:41;12.88;;;3.63;;
74658;SDS011;63186;51.204;6.536;2024-02-21T06:53:06;12.03;;;4.33;;
74658;SDS011;63186;51.204;6.536;2024-02-21T06:55:32;9.20;;;3.88;;
74658;SDS011;63186;51.204;6.536;2024-02-21T06:57:57;10.95;;;3.40;;
74658;SDS011;63186;51.204;6.536;2024-02-21T07:00:22;9.30;;;2.57;;
74658;SDS011;63186;51.204;6.536;2024-02-21T07:02:48;10.63;;;3.28;;
74658;SDS011;63186;51.204;6.536;2024-02-21T07:05:13;12.52;;;4.30;;
74658;SDS011;63186;51.204;6.536;2024-02-21T07:07:38;12.43;;;3.65;;
74658;SDS011;63186;51.204;6.536;2024-02-21T07:10:05;9.63;;;3.67;;
74658;SDS011;63186;51.204;6.536;2024-02-21T07:12:31;8.05;;;3.03;;
74658;SDS011;63186;51.204;6.536;2024-02-21T07:14:56;9.13;;;3.50;;
74658;SDS011;63186;51.204;6.536;2024-02-21T07:17:21;7.60;;;3.13;;
74658;SDS011;63186;51.204;6.536;2024-02-21T07:19:47;14.23;;;3.75;;
74658;SDS011;63186;51.204;6.536;2024-02-21T07:22:12;7.10;;;2.77;;
74658;SDS011;63186;51.204;6.536;2024-02-21T07:24:37;10.17;;;2.90;;
74658;SDS011;63186;51.204;6.536;2024-02-21T07:27:03;6.67;;;3.13;;
74658;SDS011;63186;51.204;6.536;2024-02-21T07:29:29;8.45;;;3.13;;
74658;SDS011;63186;51.204;6.536;2024-02-21T07:31:55;8.38;;;3.38;;
74658;SDS011;63186;51.204;6.536;2024-02-21T07:34:20;15.00;;;4.20;;
74658;SDS011;63186;51.204;6.536;2024-02-21T07:36:46;9.98;;;4.22;;
74658;SDS011;63186;51.204;6.536;2024-02-21T07:39:11;10.32;;;3.95;;
74658;SDS011;63186;51.204;6.536;2024-02-21T07:41:37;13.32;;;4.13;;
74658;SDS011;63186;51.204;6.536;2024-02-21T07:44:04;10.57;;;4.30;;
74658;SDS011;63186;51.204;6.536;2024-02-21T07:46:30;11.70;;;3.55;;
74658;SDS011;63186;51.204;6.536;2024-02-21T07:48:55;11.98;;;3.72;;
74658;SDS011;63186;51.204;6.536;2024-02-21T07:51:20;8.82;;;3.10;;
74658;SDS011;63186;51.204;6.536;2024-02-21T07:53:46;11.48;;;3.70;;
74658;SDS011;63186;51.204;6.536;2024-02-21T07:56:12;10.75;;;3.33;;
74658;SDS011;63186;51.204;6.536;2024-02-21T07:58:38;12.18;;;3.10;;
74658;SDS011;63186;51.204;6.536;2024-02-21T08:01:04;7.10;;;2.42;;
74658;SDS011;63186;51.204;6.536;2024-02-21T08:03:30;11.07;;;3.20;;
74658;SDS011;63186;51.204;6.536;2024-02-21T08:05:55;9.73;;;3.13;;
74658;SDS011;63186;51.204;6.536;2024-02-21T08:08:20;8.47;;;2.73;;
74658;SDS011;63186;51.204;6.536;2024-02-21T08:10:47;12.02;;;2.58;;
74658;SDS011;63186;51.204;6.536;2024-02-21T08:13:13;6.68;;;2.60;;
74658;SDS011;63186;51.204;6.536;2024-02-21T08:15:38;5.47;;;1.97;;
74658;SDS011;63186;51.204;6.536;2024-02-21T08:18:07;9.52;;;3.55;;
74658;SDS011;63186;51.204;6.536;2024-02-21T08:20:32;11.48;;;2.95;;
74658;SDS011;63186;51.204;6.536;2024-02-21T08:22:57;6.57;;;2.90;;
74658;SDS011;63186;51.204;6.536;2024-02-21T08:25:23;10.03;;;3.00;;
74658;SDS011;63186;51.204;6.536;2024-02-21T08:27:48;8.67;;;2.80;;
74658;SDS011;63186;51.204;6.536;2024-02-21T08:30:14;14.20;;;3.30;;
74658;SDS011;63186;51.204;6.536;2024-02-21T08:32:39;6.97;;;2.60;;
74658;SDS011;63186;51.204;6.536;2024-02-21T08:35:04;8.57;;;2.70;;
74658;SDS011;63186;51.204;6.536;2024-02-21T08:37:31;12.95;;;4.32;;
74658;SDS011;63186;51.204;6.536;2024-02-21T08:39:56;7.83;;;2.20;;
74658;SDS011;63186;51.204;6.536;2024-02-21T08:42:21;5.20;;;2.42;;
74658;SDS011;63186;51.204;6.536;2024-02-21T08:44:47;8.93;;;3.23;;
74658;SDS011;63186;51.204;6.536;2024-02-21T08:47:12;7.83;;;2.73;;
74658;SDS011;63186;51.204;6.536;2024-02-21T08:49:37;8.75;;;3.55;;
74658;SDS011;63186;51.204;6.536;2024-02-21T08:52:03;8.53;;;2.67;;
74658;SDS011;63186;51.204;6.536;2024-02-21T08:54:29;9.75;;;3.13;;
74658;SDS011;63186;51.204;6.536;2024-02-21T08:56:54;9.80;;;2.47;;
74658;SDS011;63186;51.204;6.536;2024-02-21T08:59:20;7.78;;;2.97;;
74658;SDS011;63186;51.204;6.536;2024-02-21T09:01:45;7.60;;;2.90;;
74658;SDS011;63186;51.204;6.536;2024-02-21T09:04:11;8.95;;;2.75;;
74658;SDS011;63186;51.204;6.536;2024-02-21T09:06:37;7.05;;;2.78;;
74658;SDS011;63186;51.204;6.536;2024-02-21T09:09:06;7.68;;;2.42;;
74658;SDS011;63186;51.204;6.536;2024-02-21T09:11:33;6.88;;;2.72;;
74658;SDS011;63186;51.204;6.536;2024-02-21T09:13:59;6.80;;;2.33;;
74658;SDS011;63186;51.204;6.536;2024-02-21T09:16:24;6.55;;;2.13;;
74658;SDS011;63186;51.204;6.536;2024-02-21T09:18:49;6.70;;;2.30;;
74658;SDS011;63186;51.204;6.536;2024-02-21T09:21:15;9.38;;;2.25;;
74658;SDS011;63186;51.204;6.536;2024-02-21T09:23:40;7.23;;;2.40;;
74658;SDS011;63186;51.204;6.536;2024-02-21T09:26:06;8.35;;;2.42;;
74658;SDS011;63186;51.204;6.536;2024-02-21T09:28:31;9.02;;;2.40;;
74658;SDS011;63186;51.204;6.536;2024-02-21T09:30:58;10.27;;;2.45;;
74658;SDS011;63186;51.204;6.536;2024-02-21T09:33:23;9.47;;;2.27;;
74658;SDS011;63186;51.204;6.536;2024-02-21T09:35:48;5.70;;;1.90;;
74658;SDS011;63186;51.204;6.536;2024-02-21T09:38:14;8.45;;;2.92;;
74658;SDS011;63186;51.204;6.536;2024-02-21T09:40:40;6.40;;;2.30;;
74658;SDS011;63186;51.204;6.536;2024-02-21T09:43:07;7.13;;;2.55;;
74658;SDS011;63186;51.204;6.536;2024-02-21T09:45:33;6.78;;;2.28;;
74658;SDS011;63186;51.204;6.536;2024-02-21T09:50:50;4.00;;;1.83;;
74658;SDS011;63186;51.204;6.536;2024-02-21T09:53:18;6.25;;;2.30;;
74658;SDS011;63186;51.204;6.536;2024-02-21T09:55:44;7.95;;;2.38;;
74658;SDS011;63186;51.204;6.536;2024-02-21T09:58:11;5.45;;;1.42;;
74658;SDS011;63186;51.204;6.536;2024-02-21T10:00:36;6.90;;;2.30;;
74658;SDS011;63186;51.204;6.536;2024-02-21T10:03:02;6.23;;;2.00;;
74658;SDS011;63186;51.204;6.536;2024-02-21T10:05:34;9.02;;;2.45;;
74658;SDS011;63186;51.204;6.536;2024-02-21T10:08:00;6.68;;;1.88;;
74658;SDS011;63186;51.204;6.536;2024-02-21T10:10:26;5.00;;;1.90;;
74658;SDS011;63186;51.204;6.536;2024-02-21T10:12:52;5.00;;;1.73;;
74658;SDS011;63186;51.204;6.536;2024-02-21T10:15:22;6.93;;;2.65;;
74658;SDS011;63186;51.204;6.536;2024-02-21T10:17:49;6.13;;;2.33;;
74658;SDS011;63186;51.204;6.536;2024-02-21T10:20:24;6.45;;;2.25;;
74658;SDS011;63186;51.204;6.536;2024-02-21T10:22:59;9.30;;;2.20;;
74658;SDS011;63186;51.204;6.536;2024-02-21T10:25:26;7.38;;;1.88;;
74658;SDS011;63186;51.204;6.536;2024-02-21T10:27:52;8.93;;;2.80;;
74658;SDS011;63186;51.204;6.536;2024-02-21T10:30:17;5.63;;;2.43;;
74658;SDS011;63186;51.204;6.536;2024-02-21T10:32:50;5.03;;;1.88;;
74658;SDS011;63186;51.204;6.536;2024-02-21T10:35:24;6.40;;;2.05;;
74658;SDS011;63186;51.204;6.536;2024-02-21T10:37:54;8.23;;;2.40;;
74658;SDS011;63186;51.204;6.536;2024-02-21T10:40:23;5.93;;;1.90;;
74658;SDS011;63186;51.204;6.536;2024-02-21T10:42:50;5.82;;;2.08;;
74658;SDS011;63186;51.204;6.536;2024-02-21T10:45:20;6.72;;;2.00;;
74658;SDS011;63186;51.204;6.536;2024-02-21T10:47:48;4.65;;;2.13;;
74658;SDS011;63186;51.204;6.536;2024-02-21T10:50:20;4.38;;;1.88;;
74658;SDS011;63186;51.204;6.536;2024-02-21T10:53:33;6.20;;;1.98;;
74658;SDS011;63186;51.204;6.536;2024-02-21T10:55:51;5.45;;;1.80;;
74658;SDS011;63186;51.204;6.536;2024-02-21T10:58:23;12.25;;;2.17;;
74658;SDS011;63186;51.204;6.536;2024-02-21T11:00:50;5.45;;;2.20;;
74658;SDS011;63186;51.204;6.536;2024-02-21T11:03:16;8.82;;;2.15;;
74658;SDS011;63186;51.204;6.536;2024-02-21T11:05:42;4.63;;;2.22;;
74658;SDS011;63186;51.204;6.536;2024-02-21T11:08:10;3.92;;;1.77;;
74658;SDS011;63186;51.204;6.536;2024-02-21T11:10:37;4.95;;;1.92;;
74658;SDS011;63186;51.204;6.536;2024-02-21T11:15:32;12.45;;;2.45;;
74658;SDS011;63186;51.204;6.536;2024-02-21T11:17:57;5.78;;;2.28;;
74658;SDS011;63186;51.204;6.536;2024-02-21T11:20:31;7.65;;;2.28;;
74658;SDS011;63186;51.204;6.536;2024-02-21T11:22:59;9.38;;;2.33;;
74658;SDS011;63186;51.204;6.536;2024-02-21T11:25:26;7.97;;;1.98;;
74658;SDS011;63186;51.204;6.536;2024-02-21T11:27:58;4.65;;;1.95;;
74658;SDS011;63186;51.204;6.536;2024-02-21T11:30:31;6.05;;;2.40;;
74658;SDS011;63186;51.204;6.536;2024-02-21T11:33:00;7.65;;;2.25;;
74658;SDS011;63186;51.204;6.536;2024-02-21T11:35:31;8.38;;;2.20;;
74658;SDS011;63186;51.204;6.536;2024-02-21T11:38:09;7.57;;;2.00;;
74658;SDS011;63186;51.204;6.536;2024-02-21T11:40:38;8.02;;;2.05;;
74658;SDS011;63186;51.204;6.536;2024-02-21T11:43:05;7.28;;;1.83;;
74658;SDS011;63186;51.204;6.536;2024-02-21T11:45:30;5.30;;;2.30;;
74658;SDS011;63186;51.204;6.536;2024-02-21T11:47:57;6.47;;;2.58;;
74658;SDS011;63186;51.204;6.536;2024-02-21T11:50:25;8.25;;;2.28;;
74658;SDS011;63186;51.204;6.536;2024-02-21T11:52:51;5.47;;;1.95;;
74658;SDS011;63186;51.204;6.536;2024-02-21T11:55:19;7.53;;;2.03;;
74658;SDS011;63186;51.204;6.536;2024-02-21T11:57:44;8.80;;;2.60;;
74658;SDS011;63186;51.204;6.536;2024-02-21T12:00:17;10.65;;;2.40;;
74658;SDS011;63186;51.204;6.536;2024-02-21T12:02:45;8.48;;;2.13;;
74658;SDS011;63186;51.204;6.536;2024-02-21T12:05:11;6.03;;;1.90;;
74658;SDS011;63186;51.204;6.536;2024-02-21T12:07:36;6.50;;;2.07;;
74658;SDS011;63186;51.204;6.536;2024-02-21T12:12:32;7.32;;;2.58;;
74658;SDS011;63186;51.204;6.536;2024-02-21T12:15:01;11.20;;;5.25;;
74658;SDS011;63186;51.204;6.536;2024-02-21T12:17:26;8.77;;;2.75;;
74658;SDS011;63186;51.204;6.536;2024-02-21T12:19:52;6.77;;;2.27;;
74658;SDS011;63186;51.204;6.536;2024-02-21T12:22:20;6.90;;;2.27;;
74658;SDS011;63186;51.204;6.536;2024-02-21T12:29:38;4.65;;;1.75;;
74658;SDS011;63186;51.204;6.536;2024-02-21T12:32:03;5.75;;;2.13;;
74658;SDS011;63186;51.204;6.536;2024-02-21T12:34:29;8.35;;;2.10;;
74658;SDS011;63186;51.204;6.536;2024-02-21T12:36:56;8.43;;;2.22;;
74658;SDS011;63186;51.204;6.536;2024-02-21T12:39:23;8.00;;;2.30;;
74658;SDS011;63186;51.204;6.536;2024-02-21T12:41:48;6.60;;;2.33;;
74658;SDS011;63186;51.204;6.536;2024-02-21T12:44:14;6.90;;;1.95;;
74658;SDS011;63186;51.204;6.536;2024-02-21T12:46:41;6.50;;;2.15;;
74658;SDS011;63186;51.204;6.536;2024-02-21T12:49:06;7.40;;;2.28;;
74658;SDS011;63186;51.204;6.536;2024-02-21T12:51:35;7.22;;;1.90;;
74658;SDS011;63186;51.204;6.536;2024-02-21T12:54:00;6.50;;;2.30;;
74658;SDS011;63186;51.204;6.536;2024-02-21T12:56:27;8.32;;;2.00;;
74658;SDS011;63186;51.204;6.536;2024-02-21T12:58:54;4.20;;;1.80;;
74658;SDS011;63186;51.204;6.536;2024-02-21T13:01:20;7.82;;;3.10;;
74658;SDS011;63186;51.204;6.536;2024-02-21T13:03:46;5.60;;;2.30;;
74658;SDS011;63186;51.204;6.536;2024-02-21T13:06:11;4.50;;;1.80;;
74658;SDS011;63186;51.204;6.536;2024-02-21T13:08:37;4.38;;;2.00;;
74658;SDS011;63186;51.204;6.536;2024-02-21T13:11:02;5.63;;;1.92;;
74658;SDS011;63186;51.204;6.536;2024-02-21T13:13:29;10.07;;;2.25;;
74658;SDS011;63186;51.204;6.536;2024-02-21T13:15:54;8.60;;;2.35;;
74658;SDS011;63186;51.204;6.536;2024-02-21T13:18:19;10.73;;;2.50;;
74658;SDS011;63186;51.204;6.536;2024-02-21T13:20:45;9.60;;;3.17;;
74658;SDS011;63186;51.204;6.536;2024-02-21T13:23:10;10.63;;;3.88;;
74658;SDS011;63186;51.204;6.536;2024-02-21T13:25:35;12.97;;;3.73;;
74658;SDS011;63186;51.204;6.536;2024-02-21T13:28:00;10.20;;;4.00;;
74658;SDS011;63186;51.204;6.536;2024-02-21T13:30:28;9.13;;;3.67;;
74658;SDS011;63186;51.204;6.536;2024-02-21T13:32:53;6.00;;;2.38;;
74658;SDS011;63186;51.204;6.536;2024-02-21T13:35:19;9.38;;;3.80;;
74658;SDS011;63186;51.204;6.536;2024-02-21T13:37:45;4.85;;;2.10;;
74658;SDS011;63186;51.204;6.536;2024-02-21T13:40:11;6.00;;;2.63;;
74658;SDS011;63186;51.204;6.536;2024-02-21T13:42:36;8.20;;;2.63;;
74658;SDS011;63186;51.204;6.536;2024-02-21T13:45:03;5.07;;;1.83;;
74658;SDS011;63186;51.204;6.536;2024-02-21T13:47:30;6.50;;;2.40;;
74658;SDS011;63186;51.204;6.536;2024-02-21T13:49:55;8.55;;;2.40;;
74658;SDS011;63186;51.204;6.536;2024-02-21T13:52:21;6.32;;;2.55;;
74658;SDS011;63186;51.204;6.536;2024-02-21T13:54:46;10.77;;;2.20;;
74658;SDS011;63186;51.204;6.536;2024-02-21T13:57:12;5.05;;;1.92;;
74658;SDS011;63186;51.204;6.536;2024-02-21T13:59:39;5.50;;;1.98;;
74658;SDS011;63186;51.204;6.536;2024-02-21T14:02:04;5.60;;;2.20;;
74658;SDS011;63186;51.204;6.536;2024-02-21T14:04:32;5.57;;;2.25;;
74658;SDS011;63186;51.204;6.536;2024-02-21T14:06:57;5.60;;;1.85;;
74658;SDS011;63186;51.204;6.536;2024-02-21T14:09:23;8.17;;;2.83;;
74658;SDS011;63186;51.204;6.536;2024-02-21T14:11:48;7.90;;;2.33;;
74658;SDS011;63186;51.204;6.536;2024-02-21T14:14:13;4.68;;;1.80;;
74658;SDS011;63186;51.204;6.536;2024-02-21T14:16:40;6.05;;;2.42;;
74658;SDS011;63186;51.204;6.536;2024-02-21T14:19:05;5.05;;;2.00;;
74658;SDS011;63186;51.204;6.536;2024-02-21T14:21:32;5.82;;;2.08;;
74658;SDS011;63186;51.204;6.536;2024-02-21T14:23:57;6.55;;;2.42;;
74658;SDS011;63186;51.204;6.536;2024-02-21T14:26:23;6.75;;;2.33;;
74658;SDS011;63186;51.204;6.536;2024-02-21T14:28:48;5.35;;;2.38;;
74658;SDS011;63186;51.204;6.536;2024-02-21T14:31:13;6.37;;;2.40;;
74658;SDS011;63186;51.204;6.536;2024-02-21T14:33:39;5.82;;;2.10;;
74658;SDS011;63186;51.204;6.536;2024-02-21T14:36:05;4.78;;;1.92;;
74658;SDS011;63186;51.204;6.536;2024-02-21T14:38:30;6.68;;;2.40;;
74658;SDS011;63186;51.204;6.536;2024-02-21T14:40:56;7.00;;;2.13;;
74658;SDS011;63186;51.204;6.536;2024-02-21T14:43:21;3.38;;;1.52;;
74658;SDS011;63186;51.204;6.536;2024-02-21T14:45:49;6.38;;;2.22;;
74658;SDS011;63186;51.204;6.536;2024-02-21T14:48:15;8.00;;;2.45;;
74658;SDS011;63186;51.204;6.536;2024-02-21T14:50:40;8.30;;;3.17;;